Time;durP1;ratioP1;P1;durP2;ratioP2;P2;SDS_P1;SDS_P2;PMS_P1;PMS_P2;Temp;Humidity;BMP_temperature;BMP_pressure;BME280_temperature;BME280_humidity;BME280_pressure;Samples;Min_cycle;Max_cycle;Signal;HPM_P1;HPM_P2
2023/07/21 00:01:21;;;;;;;9.05;2.90;;;;;;;21.34;nan;100158.34;5023644;28;20029;-74
2023/07/21 00:03:46;;;;;;;6.40;2.80;;;;;;;21.27;nan;100153.41;5024713;28;20095;-74
2023/07/21 00:06:17;;;;;;;6.20;3.10;;;;;;;21.16;nan;100144.78;5023889;28;20463;-74
2023/07/21 00:08:43;;;;;;;6.22;3.20;;;;;;;21.19;nan;100157.59;5022911;28;20091;-74
2023/07/21 00:11:09;;;;;;;12.18;2.90;;;;;;;21.06;nan;100134.31;5022193;28;20029;-75
2023/07/21 00:13:35;;;;;;;7.05;2.80;;;;;;;21.03;nan;100122.34;5029083;28;20034;-74
2023/07/21 00:16:05;;;;;;;8.95;3.15;;;;;;;21.03;nan;100133.03;5025415;28;20030;-76
2023/07/21 00:18:32;;;;;;;10.55;2.97;;;;;;;21.02;nan;100127.97;5026229;28;20033;-77
2023/07/21 00:20:57;;;;;;;7.45;2.70;;;;;;;20.92;nan;100112.94;5025502;28;20044;-77
2023/07/21 00:23:24;;;;;;;8.70;3.60;;;;;;;20.97;nan;100123.56;5022341;28;20606;-77
2023/07/21 00:25:50;;;;;;;9.27;3.00;;;;;;;20.88;nan;100121.84;5025880;28;20034;-77
2023/07/21 00:28:17;;;;;;;7.90;3.55;;;;;;;20.82;nan;100127.31;5018668;28;20480;-77
2023/07/21 00:30:46;;;;;;;5.35;2.80;;;;;;;20.85;nan;100125.94;5055342;28;20064;-77
2023/07/21 00:33:12;;;;;;;10.85;3.08;;;;;;;20.69;nan;100122.81;5028798;28;20380;-77
2023/07/21 00:35:37;;;;;;;5.07;2.85;;;;;;;20.74;nan;100130.72;5022341;28;20096;-76
2023/07/21 00:38:04;;;;;;;4.45;3.13;;;;;;;20.63;nan;100115.94;5021958;28;20037;-77
2023/07/21 00:40:31;;;;;;;6.68;2.80;;;;;;;20.59;nan;100115.78;5023503;28;20430;-77
2023/07/21 00:42:57;;;;;;;8.35;2.90;;;;;;;20.60;nan;100119.25;5022565;28;20018;-77
2023/07/21 00:45:23;;;;;;;7.75;2.97;;;;;;;20.53;nan;100118.81;5028084;28;20503;-77
2023/07/21 00:47:48;;;;;;;9.32;3.20;;;;;;;20.51;nan;100129.00;5018663;28;20029;-77
2023/07/21 00:50:16;;;;;;;6.93;2.70;;;;;;;20.40;nan;100117.75;5022067;28;20025;-77
2023/07/21 00:52:42;;;;;;;7.50;3.10;;;;;;;20.45;nan;100127.50;5020444;28;20628;-76
2023/07/21 00:55:08;;;;;;;10.27;3.10;;;;;;;20.37;nan;100121.78;5020691;28;20033;-75
2023/07/21 00:57:34;;;;;;;6.70;2.83;;;;;;;20.25;nan;100113.44;5018627;28;20032;-76
2023/07/21 01:00:01;;;;;;;4.75;2.50;;;;;;;20.30;nan;100123.25;5032443;28;20032;-76
2023/07/21 01:02:27;;;;;;;7.63;3.05;;;;;;;20.23;nan;100115.63;5025997;28;20093;-77
2023/07/21 01:04:54;;;;;;;6.75;3.10;;;;;;;20.25;nan;100126.03;5029088;28;20099;-77
2023/07/21 01:07:20;;;;;;;8.68;3.13;;;;;;;20.21;nan;100135.72;5020717;28;20033;-75
2023/07/21 01:09:46;;;;;;;7.97;3.35;;;;;;;19.94;nan;100091.84;5025078;28;20021;-76
2023/07/21 01:12:13;;;;;;;7.20;3.30;;;;;;;20.10;nan;100125.22;5022761;28;20494;-77
2023/07/21 01:14:38;;;;;;;8.13;3.90;;;;;;;20.06;nan;100132.25;5021803;28;20030;-77
2023/07/21 01:17:07;;;;;;;10.02;3.42;;;;;;;20.09;nan;100137.00;5029797;28;20041;-77
2023/07/21 01:19:34;;;;;;;10.80;3.97;;;;;;;20.06;nan;100137.59;5035309;28;20068;-77
2023/07/21 01:22:08;;;;;;;6.25;3.60;;;;;;;20.00;nan;100133.44;5024561;28;20104;-76
2023/07/21 01:24:50;;;;;;;5.50;3.78;;;;;;;19.77;nan;100100.41;5024485;28;20047;-76
2023/07/21 01:27:20;;;;;;;8.82;3.67;;;;;;;19.88;nan;100117.88;5019768;28;20021;-75
2023/07/21 01:29:47;;;;;;;7.35;3.35;;;;;;;19.87;nan;100121.63;5024165;28;20104;-76
2023/07/21 01:32:17;;;;;;;8.95;4.47;;;;;;;19.88;nan;100127.75;5018942;28;21224;-77
2023/07/21 01:34:43;;;;;;;7.55;4.20;;;;;;;19.75;nan;100122.09;5026804;28;20037;-77
2023/07/21 01:37:11;;;;;;;8.23;4.22;;;;;;;19.72;nan;100125.34;5025860;28;20087;-75
2023/07/21 01:39:38;;;;;;;7.93;3.90;;;;;;;19.71;nan;100126.44;5019890;28;20550;-75
2023/07/21 01:42:05;;;;;;;9.68;4.28;;;;;;;19.72;nan;100135.22;5031148;28;20285;-75
2023/07/21 01:44:31;;;;;;;7.50;4.57;;;;;;;19.72;nan;100140.56;5022033;28;20079;-74
2023/07/21 01:46:56;;;;;;;8.90;3.97;;;;;;;19.68;nan;100136.91;5020924;28;20026;-75
2023/07/21 01:49:22;;;;;;;8.25;4.00;;;;;;;19.68;nan;100143.06;5018099;28;20029;-75
2023/07/21 01:51:48;;;;;;;8.25;4.20;;;;;;;19.68;nan;100144.91;5023467;28;20073;-75
2023/07/21 01:54:24;;;;;;;9.50;4.25;;;;;;;19.66;nan;100150.53;5018869;28;20709;-75
2023/07/21 01:56:55;;;;;;;9.02;3.63;;;;;;;19.61;nan;100144.47;5023742;28;20037;-76
2023/07/21 01:59:22;;;;;;;6.03;3.83;;;;;;;19.56;nan;100142.66;5024800;28;20079;-76
2023/07/21 02:01:48;;;;;;;7.32;4.05;;;;;;;19.43;nan;100130.84;5032305;28;20069;-76
2023/07/21 02:04:14;;;;;;;9.07;3.70;;;;;;;19.46;nan;100138.25;5025342;28;20041;-76
2023/07/21 02:06:40;;;;;;;5.85;3.72;;;;;;;19.46;nan;100140.94;5028162;28;20480;-76
2023/07/21 02:09:06;;;;;;;8.88;3.97;;;;;;;19.32;nan;100137.41;5025219;28;20448;-75
2023/07/21 02:11:32;;;;;;;8.68;4.28;;;;;;;19.33;nan;100142.47;5021858;28;20021;-75
2023/07/21 02:13:58;;;;;;;6.88;3.70;;;;;;;19.11;nan;100112.91;5025545;28;20018;-75
2023/07/21 02:16:23;;;;;;;7.35;3.88;;;;;;;19.23;nan;100134.63;5031095;28;20468;-76
2023/07/21 02:18:48;;;;;;;12.15;4.18;;;;;;;19.16;nan;100126.19;5025578;28;20037;-74
2023/07/21 02:21:17;;;;;;;9.93;4.07;;;;;;;19.15;nan;100139.81;5026776;28;20483;-75
2023/07/21 02:23:43;;;;;;;7.15;4.25;;;;;;;19.10;nan;100128.09;5035836;28;20112;-74
2023/07/21 02:26:08;;;;;;;13.32;4.70;;;;;;;19.09;nan;100139.88;5023181;28;20543;-74
2023/07/21 02:28:33;;;;;;;8.20;4.30;;;;;;;19.02;nan;100135.97;5055285;28;20380;-74
2023/07/21 02:31:03;;;;;;;6.82;4.68;;;;;;;18.97;nan;100136.06;5026488;28;20071;-74
2023/07/21 02:33:35;;;;;;;8.48;4.72;;;;;;;18.97;nan;100150.19;5027721;28;20025;-74
2023/07/21 02:36:02;;;;;;;10.63;4.70;;;;;;;18.80;nan;100140.00;5026099;28;20335;-74
2023/07/21 02:38:28;;;;;;;10.85;4.85;;;;;;;18.82;nan;100150.34;5026365;28;20032;-75
2023/07/21 02:40:54;;;;;;;9.77;5.13;;;;;;;18.68;nan;100131.59;5028452;28;20052;-75
2023/07/21 02:43:19;;;;;;;7.65;4.78;;;;;;;18.68;nan;100135.03;5017114;28;20814;-76
2023/07/21 02:45:49;;;;;;;9.38;5.32;;;;;;;18.73;nan;100144.06;5023224;28;20032;-74
2023/07/21 02:48:16;;;;;;;9.40;5.63;;;;;;;18.65;nan;100138.28;5026872;28;20021;-76
2023/07/21 02:50:41;;;;;;;9.57;5.72;;;;;;;18.51;nan;100121.38;5024698;28;20033;-75
2023/07/21 02:53:07;;;;;;;13.93;5.65;;;;;;;18.48;nan;100141.41;5027994;28;20388;-74
2023/07/21 02:55:32;;;;;;;9.60;5.90;;;;;;;18.44;nan;100145.72;5023183;28;20065;-74
2023/07/21 02:57:58;;;;;;;11.57;5.88;;;;;;;18.38;nan;100138.81;5018680;28;20080;-73
2023/07/21 03:00:23;;;;;;;9.55;5.55;;;;;;;18.38;nan;100146.81;5025174;28;20025;-76
2023/07/21 03:02:48;;;;;;;9.45;5.90;;;;;;;18.44;nan;100158.25;5021283;28;20048;-75
2023/07/21 03:05:14;;;;;;;9.23;5.47;;;;;;;18.36;nan;100158.84;5024648;28;20052;-74
2023/07/21 03:07:39;;;;;;;12.80;6.25;;;;;;;18.34;nan;100153.81;5027318;28;20040;-74
2023/07/21 03:10:07;;;;;;;10.10;5.70;;;;;;;18.41;nan;100166.78;5021582;28;20026;-75
2023/07/21 03:12:33;;;;;;;12.27;6.00;;;;;;;18.23;nan;100145.13;5027243;28;20025;-74
2023/07/21 03:14:59;;;;;;;12.02;6.10;;;;;;;18.28;nan;100155.72;5030410;28;20103;-74
2023/07/21 03:17:24;;;;;;;9.48;6.25;;;;;;;18.22;nan;100156.06;5023138;28;20033;-74
2023/07/21 03:19:49;;;;;;;12.00;6.45;;;;;;;18.26;nan;100162.41;5025759;28;20447;-76
2023/07/21 03:22:16;;;;;;;12.98;6.57;;;;;;;18.30;nan;100171.44;5018637;28;20079;-75
2023/07/21 03:24:41;;;;;;;13.52;6.35;;;;;;;18.34;nan;100167.16;5029565;28;20025;-75
2023/07/21 03:27:07;;;;;;;14.65;6.28;;;;;;;18.35;nan;100166.06;5021364;28;20041;-76
2023/07/21 03:29:32;;;;;;;12.70;6.50;;;;;;;18.39;nan;100172.44;5018130;28;20028;-74
2023/07/21 03:31:57;;;;;;;11.93;6.45;;;;;;;18.36;nan;100166.84;5030311;28;20017;-74
2023/07/21 03:34:23;;;;;;;14.40;6.45;;;;;;;18.44;nan;100176.91;5026553;28;20079;-75
2023/07/21 03:36:50;;;;;;;11.43;7.13;;;;;;;18.39;nan;100161.75;5025994;28;20513;-74
2023/07/21 03:39:17;;;;;;;12.48;7.05;;;;;;;18.44;nan;100166.25;5029043;28;20378;-76
2023/07/21 03:41:42;;;;;;;11.20;6.80;;;;;;;18.43;nan;100160.09;5029731;28;20147;-76
2023/07/21 03:44:09;;;;;;;19.25;8.02;;;;;;;18.40;nan;100146.56;5033828;28;20534;-75
2023/07/21 03:46:35;;;;;;;10.32;7.18;;;;;;;18.47;nan;100153.13;5033538;28;20034;-75
2023/07/21 03:49:00;;;;;;;13.18;7.40;;;;;;;18.50;nan;100160.56;5030981;28;20441;-75
2023/07/21 03:51:26;;;;;;;12.02;6.72;;;;;;;18.57;nan;100170.91;5023190;28;20040;-75
2023/07/21 03:53:52;;;;;;;19.98;8.50;;;;;;;18.56;nan;100171.97;5031408;28;20631;-76
2023/07/21 03:56:18;;;;;;;15.65;7.57;;;;;;;18.48;nan;100162.75;5030217;28;20021;-76
2023/07/21 03:58:44;;;;;;;19.30;7.97;;;;;;;18.40;nan;100151.88;5032380;28;20445;-75
2023/07/21 04:01:09;;;;;;;15.93;7.50;;;;;;;18.43;nan;100157.44;5024282;28;20033;-75
2023/07/21 04:03:35;;;;;;;12.70;7.65;;;;;;;18.45;nan;100155.28;5030563;28;20306;-75
2023/07/21 04:06:08;;;;;;;15.10;7.80;;;;;;;18.47;nan;100153.13;5025026;28;20034;-75
2023/07/21 04:08:34;;;;;;;13.73;7.47;;;;;;;18.55;nan;100173.03;5025387;28;20096;-75
2023/07/21 04:10:59;;;;;;;12.00;8.18;;;;;;;18.56;nan;100163.19;5032287;28;20395;-77
2023/07/21 04:13:26;;;;;;;11.32;7.85;;;;;;;18.53;nan;100159.19;5022824;28;20031;-76
2023/07/21 04:15:52;;;;;;;19.33;7.82;;;;;;;18.52;nan;100151.50;5025444;28;20032;-76
2023/07/21 04:18:18;;;;;;;14.40;7.65;;;;;;;18.67;nan;100175.31;5023029;28;20029;-75
2023/07/21 04:20:43;;;;;;;11.05;7.30;;;;;;;18.68;nan;100169.72;5023827;28;20029;-73
2023/07/21 04:23:09;;;;;;;12.52;7.75;;;;;;;18.74;nan;100169.66;5025192;28;20091;-73
2023/07/21 04:25:35;;;;;;;18.05;7.88;;;;;;;18.84;nan;100172.22;5022854;28;20039;-74
2023/07/21 04:28:01;;;;;;;17.80;7.78;;;;;;;18.91;nan;100168.16;5040712;28;20100;-74
2023/07/21 04:30:26;;;;;;;16.88;7.60;;;;;;;18.95;nan;100168.34;5032507;28;20053;-74
2023/07/21 04:32:51;;;;;;;16.45;7.55;;;;;;;18.96;nan;100156.59;5027412;28;20033;-75
2023/07/21 04:35:17;;;;;;;14.43;6.85;;;;;;;19.04;nan;100160.50;5035795;28;20076;-75
2023/07/21 04:37:43;;;;;;;17.17;8.27;;;;;;;19.07;nan;100155.38;5026261;28;20041;-76
2023/07/21 04:40:10;;;;;;;16.08;7.65;;;;;;;19.13;nan;100151.56;5025256;28;20475;-75
2023/07/21 04:42:36;;;;;;;17.38;7.60;;;;;;;19.25;nan;100145.00;5027508;28;20033;-75
2023/07/21 04:45:01;;;;;;;16.23;6.75;;;;;;;19.34;nan;100156.59;5025097;28;20025;-74
2023/07/21 04:47:27;;;;;;;14.23;7.22;;;;;;;19.26;nan;100131.38;5059902;28;20408;-73
2023/07/21 04:49:53;;;;;;;15.63;7.85;;;;;;;19.41;nan;100140.22;5029647;28;20056;-74
2023/07/21 04:52:19;;;;;;;17.13;7.78;;;;;;;19.54;nan;100153.66;5031183;28;20199;-75
2023/07/21 04:54:44;;;;;;;17.95;7.07;;;;;;;19.62;nan;100159.41;5031342;28;20495;-75
2023/07/21 04:57:10;;;;;;;15.18;7.60;;;;;;;19.69;nan;100157.97;5025849;28;20037;-74
2023/07/21 04:59:36;;;;;;;13.70;8.32;;;;;;;19.70;nan;100138.19;5021306;28;20489;-75
2023/07/21 05:02:02;;;;;;;15.00;8.32;;;;;;;19.88;nan;100144.59;5023475;28;20036;-74
2023/07/21 05:04:28;;;;;;;16.65;7.97;;;;;;;20.08;nan;100172.06;5023982;28;20364;-74
2023/07/21 05:06:53;;;;;;;13.45;7.32;;;;;;;20.15;nan;100167.91;5021477;28;20184;-75
2023/07/21 05:09:19;;;;;;;12.65;7.22;;;;;;;20.22;nan;100172.88;5018796;28;20087;-75
2023/07/21 05:11:45;;;;;;;16.38;7.25;;;;;;;20.34;nan;100178.53;5021367;28;20479;-73
2023/07/21 05:14:12;;;;;;;14.85;6.97;;;;;;;20.48;nan;100181.22;5024947;28;20041;-73
2023/07/21 05:16:37;;;;;;;13.68;7.15;;;;;;;20.46;nan;100170.03;5021155;28;20021;-77
2023/07/21 05:19:04;;;;;;;12.13;7.75;;;;;;;20.68;nan;100177.38;5022535;28;20048;-75
2023/07/21 05:21:29;;;;;;;12.38;7.32;;;;;;;20.75;nan;100172.44;5022455;28;20423;-74
2023/07/21 05:23:54;;;;;;;10.45;6.85;;;;;;;20.91;nan;100172.91;5018718;28;20029;-74
2023/07/21 05:26:21;;;;;;;17.55;7.25;;;;;;;20.97;nan;100169.06;5022663;28;20107;-74
2023/07/21 05:28:49;;;;;;;20.52;7.85;;;;;;;21.07;nan;100165.38;5023378;28;20037;-76
2023/07/21 05:31:16;;;;;;;11.48;7.07;;;;;;;21.20;nan;100161.84;5019983;28;20675;-75
2023/07/21 05:33:41;;;;;;;13.70;7.28;;;;;;;21.21;nan;100155.41;5016580;28;20041;-77
2023/07/21 05:36:10;;;;;;;14.77;7.15;;;;;;;21.35;nan;100168.75;5011296;28;20221;-77
2023/07/21 05:38:37;;;;;;;9.90;6.18;;;;;;;21.44;nan;100180.38;5036332;28;20092;-77
2023/07/21 05:41:03;;;;;;;14.75;7.70;;;;;;;21.51;nan;100174.59;5022676;28;20051;-73
2023/07/21 05:43:29;;;;;;;10.50;6.20;;;;;;;21.54;nan;100165.94;5023170;28;20886;-75
2023/07/21 05:45:54;;;;;;;12.70;6.25;;;;;;;21.75;nan;100184.22;5028457;28;20550;-73
2023/07/21 05:48:20;;;;;;;15.00;6.22;;;;;;;21.71;nan;100173.31;5027950;28;20950;-75
2023/07/21 05:50:46;;;;;;;12.57;6.25;;;;;;;21.89;nan;100182.28;5028261;28;20017;-76
2023/07/21 05:53:11;;;;;;;11.25;6.38;;;;;;;22.05;nan;100186.16;5030509;28;20376;-77
2023/07/21 05:55:40;;;;;;;14.05;5.97;;;;;;;22.11;nan;100180.66;5026971;28;20037;-77
2023/07/21 05:58:07;;;;;;;18.98;7.05;;;;;;;22.03;nan;100155.38;5026311;28;20063;-77
2023/07/21 06:00:36;;;;;;;14.20;6.30;;;;;;;22.40;nan;100183.66;5023912;28;20104;-76
2023/07/21 06:03:02;;;;;;;12.52;7.18;;;;;;;22.37;nan;100162.81;5023024;28;20029;-76
2023/07/21 06:05:28;;;;;;;20.30;6.50;;;;;;;22.69;nan;100182.34;5025087;28;20137;-76
2023/07/21 06:07:54;;;;;;;22.80;6.40;;;;;;;22.72;nan;100173.66;5031213;28;20028;-77
2023/07/21 06:10:19;;;;;;;15.93;7.05;;;;;;;22.81;nan;100174.47;5026462;28;20037;-74
2023/07/21 06:12:45;;;;;;;10.50;6.38;;;;;;;22.77;nan;100151.25;5028357;28;20543;-74
2023/07/21 06:15:10;;;;;;;15.27;6.70;;;;;;;22.99;nan;100171.88;5024296;28;20032;-73
2023/07/21 06:17:36;;;;;;;17.80;6.50;;;;;;;23.13;nan;100172.53;5023292;28;20056;-71
2023/07/21 06:20:01;;;;;;;32.83;7.78;;;;;;;23.24;nan;100176.47;5022323;28;20105;-71
2023/07/21 06:22:27;;;;;;;22.08;7.07;;;;;;;23.29;nan;100172.84;5037677;28;20025;-71
2023/07/21 06:34:58;;;;;;;10.80;6.55;;;;;;;23.78;nan;100173.50;5021662;28;20082;-72
2023/07/21 06:37:23;;;;;;;16.15;6.40;;;;;;;23.89;nan;100176.63;5027848;28;20484;-71
2023/07/21 06:39:50;;;;;;;11.60;6.53;;;;;;;23.95;nan;100169.97;5029981;28;20033;-71
2023/07/21 06:42:16;;;;;;;13.93;5.65;;;;;;;24.09;nan;100186.72;5669817;22;20737;-73
2023/07/21 06:44:42;;;;;;;11.15;6.10;;;;;;;24.19;nan;100175.59;5017748;28;20034;-73
2023/07/21 06:47:07;;;;;;;14.88;6.00;;;;;;;24.36;nan;100174.75;5019883;28;20501;-74
2023/07/21 06:49:32;;;;;;;14.40;6.40;;;;;;;24.41;nan;100166.47;5019724;28;20183;-74
2023/07/21 06:51:58;;;;;;;12.98;5.40;;;;;;;24.44;nan;100165.03;5016617;28;20490;-75
2023/07/21 06:54:24;;;;;;;13.85;6.07;;;;;;;24.63;nan;100173.53;5017168;28;20038;-75
2023/07/21 06:56:49;;;;;;;11.30;5.55;;;;;;;24.70;nan;100161.47;5013961;28;20033;-74
2023/07/21 06:59:15;;;;;;;11.90;6.43;;;;;;;24.85;nan;100168.97;5016649;28;20036;-74
2023/07/21 07:01:41;;;;;;;13.98;6.10;;;;;;;24.92;nan;100166.53;5017137;28;20545;-74
2023/07/21 07:04:06;;;;;;;16.42;6.55;;;;;;;24.95;nan;100163.22;5018557;28;20109;-74
2023/07/21 07:06:32;;;;;;;8.52;5.95;;;;;;;25.12;nan;100165.00;5018404;28;20053;-74
2023/07/21 07:08:57;;;;;;;16.52;6.05;;;;;;;25.12;nan;100151.53;5020988;28;20399;-74
2023/07/21 07:11:23;;;;;;;14.63;6.28;;;;;;;25.28;nan;100154.44;5021183;28;20049;-73
2023/07/21 07:13:48;;;;;;;9.00;5.82;;;;;;;25.33;nan;100166.91;5015918;28;20057;-72
2023/07/21 07:16:13;;;;;;;10.52;6.10;;;;;;;25.45;nan;100165.09;5018986;28;20436;-72
2023/07/21 07:18:39;;;;;;;8.52;5.70;;;;;;;25.61;nan;100159.84;5018020;28;20029;-72
2023/07/21 07:21:04;;;;;;;9.48;5.68;;;;;;;25.55;nan;100149.59;5018351;28;20025;-74
2023/07/21 07:23:30;;;;;;;13.57;6.05;;;;;;;25.79;nan;100167.78;5024375;28;20028;-73
2023/07/21 07:25:55;;;;;;;17.48;5.70;;;;;;;25.85;nan;100156.44;5015124;28;20495;-73
2023/07/21 07:28:21;;;;;;;10.82;5.63;;;;;;;26.03;nan;100159.00;5011712;28;20076;-73
2023/07/21 07:30:48;;;;;;;9.00;5.68;;;;;;;26.05;nan;100154.84;5017885;28;20025;-74
2023/07/21 07:33:14;;;;;;;12.30;5.70;;;;;;;26.10;nan;100161.94;5033843;28;20044;-73
2023/07/21 07:35:51;;;;;;;16.02;6.28;;;;;;;26.27;nan;100159.00;5018203;28;20052;-74
2023/07/21 07:38:18;;;;;;;13.18;5.57;;;;;;;26.26;nan;100156.63;5017637;28;20026;-73
2023/07/21 07:40:44;;;;;;;26.98;5.82;;;;;;;26.36;nan;100141.91;5015413;28;20127;-72
2023/07/21 07:43:09;;;;;;;11.80;5.47;;;;;;;26.44;nan;100128.31;5011762;28;20479;-72
2023/07/21 07:45:36;;;;;;;11.10;4.82;;;;;;;26.61;nan;100129.22;5015498;28;20044;-72
2023/07/21 07:48:02;;;;;;;10.18;5.22;;;;;;;26.70;nan;100144.19;5015794;28;20083;-73
2023/07/21 07:50:27;;;;;;;10.65;5.13;;;;;;;26.86;nan;100149.66;5019185;28;20028;-73
2023/07/21 07:52:53;;;;;;;14.50;5.15;;;;;;;26.92;nan;100142.91;5009279;28;20125;-74
2023/07/21 07:55:19;;;;;;;11.85;4.70;;;;;;;27.00;nan;100148.50;5020649;28;20115;-72
2023/07/21 07:57:44;;;;;;;12.85;4.80;;;;;;;27.13;nan;100140.03;5016075;28;20041;-72
2023/07/21 08:00:11;;;;;;;8.75;4.88;;;;;;;27.25;nan;100138.44;5025579;28;20483;-73
2023/07/21 08:02:37;;;;;;;6.60;4.60;;;;;;;27.36;nan;100129.47;5024602;28;20041;-72
2023/07/21 08:05:02;;;;;;;12.52;4.50;;;;;;;27.40;nan;100131.50;5018227;28;20033;-73
2023/07/21 08:07:27;;;;;;;13.07;4.40;;;;;;;27.43;nan;100117.28;5018382;28;20481;-73
2023/07/21 08:09:53;;;;;;;8.52;4.50;;;;;;;27.53;nan;100122.19;5011086;28;20124;-72
2023/07/21 08:12:18;;;;;;;13.35;4.80;;;;;;;27.64;nan;100115.16;5015357;28;20048;-73
2023/07/21 08:14:43;;;;;;;8.20;3.90;;;;;;;27.66;nan;100121.00;5015206;28;20115;-73
2023/07/21 08:17:09;;;;;;;8.02;4.03;;;;;;;27.79;nan;100127.13;5014766;28;20479;-72
2023/07/21 08:19:35;;;;;;;8.15;4.00;;;;;;;27.81;nan;100124.88;5018210;28;20030;-73
2023/07/21 08:22:07;;;;;;;13.65;4.68;;;;;;;27.99;nan;100122.63;5022377;28;20029;-73
2023/07/21 08:24:33;;;;;;;8.75;4.00;;;;;;;27.98;nan;100116.41;5014602;28;20060;-71
2023/07/21 08:27:02;;;;;;;10.55;4.13;;;;;;;28.03;nan;100118.09;5018401;28;20029;-71
2023/07/21 08:29:28;;;;;;;7.97;4.00;;;;;;;28.06;nan;100114.66;5032962;28;20072;-71
2023/07/21 08:31:53;;;;;;;10.40;4.55;;;;;;;28.20;nan;100117.72;5016470;28;20081;-74
2023/07/21 08:34:19;;;;;;;8.75;3.95;;;;;;;28.30;nan;100118.31;5017799;28;20062;-78
2023/07/21 08:36:44;;;;;;;6.55;4.10;;;;;;;28.36;nan;100114.22;5021246;28;20746;-79
2023/07/21 08:39:10;;;;;;;11.60;4.28;;;;;;;28.40;nan;100117.81;5016484;28;20061;-79
2023/07/21 08:41:48;;;;;;;12.57;4.47;;;;;;;28.49;nan;100107.56;5025735;28;20364;-80
2023/07/21 08:44:15;;;;;;;8.90;4.25;;;;;;;28.56;nan;100113.16;5020830;28;20511;-79
2023/07/21 08:46:41;;;;;;;7.55;4.10;;;;;;;28.57;nan;100114.72;5017304;28;20042;-78
2023/07/21 08:49:07;;;;;;;11.60;4.10;;;;;;;28.63;nan;100112.53;5014153;28;20482;-79
2023/07/21 08:51:34;;;;;;;7.88;4.10;;;;;;;28.66;nan;100095.56;5015312;28;20192;-80
2023/07/21 08:54:00;;;;;;;15.52;4.30;;;;;;;28.71;nan;100099.91;5017061;28;20099;-79
2023/07/21 08:56:26;;;;;;;9.25;4.40;;;;;;;28.82;nan;100112.53;5013328;28;20058;-80
2023/07/21 08:58:51;;;;;;;10.70;4.40;;;;;;;28.80;nan;100100.50;5014083;28;20074;-79
2023/07/21 09:01:17;;;;;;;9.93;4.40;;;;;;;28.95;nan;100096.94;5018416;28;20025;-79
2023/07/21 09:03:46;;;;;;;9.20;4.13;;;;;;;28.92;nan;100107.72;5017357;28;20036;-80
2023/07/21 09:06:14;;;;;;;21.17;5.53;;;;;;;29.02;nan;100110.66;5016705;28;20083;-78
2023/07/21 09:08:39;;;;;;;9.98;4.20;;;;;;;29.01;nan;100102.88;5023862;28;20554;-78
2023/07/21 09:11:07;;;;;;;9.57;4.30;;;;;;;29.00;nan;100104.78;5020765;28;20049;-81
2023/07/21 09:13:32;;;;;;;9.80;4.00;;;;;;;29.02;nan;100088.97;5018444;28;20661;-78
2023/07/21 09:16:05;;;;;;;7.80;3.90;;;;;;;29.05;nan;100098.31;5021081;28;20072;-79
2023/07/21 09:18:35;;;;;;;8.30;4.22;;;;;;;29.24;nan;100101.03;5022809;28;20033;-73
2023/07/21 09:21:00;;;;;;;11.15;3.83;;;;;;;29.33;nan;100108.16;5020146;28;20053;-73
2023/07/21 09:23:29;;;;;;;6.30;3.80;;;;;;;29.35;nan;100098.50;5022371;28;20160;-74
2023/07/21 09:26:01;;;;;;;8.57;3.65;;;;;;;29.33;nan;100095.41;5024422;28;20825;-74
2023/07/21 09:28:41;;;;;;;10.70;3.95;;;;;;;29.46;nan;100096.00;5016890;28;20458;-74
2023/07/21 09:31:07;;;;;;;13.13;4.28;;;;;;;29.53;nan;100088.00;5017388;28;20014;-75
2023/07/21 09:33:40;;;;;;;15.00;3.65;;;;;;;29.52;nan;100094.53;5036297;28;20905;-73
2023/07/21 09:36:08;;;;;;;6.32;3.70;;;;;;;29.66;nan;100099.44;5020873;28;20117;-74
2023/07/21 09:38:35;;;;;;;9.77;3.93;;;;;;;29.62;nan;100093.97;5017910;28;20045;-74
2023/07/21 09:41:05;;;;;;;5.90;3.67;;;;;;;29.72;nan;100091.84;5022332;28;20680;-73
2023/07/21 09:43:31;;;;;;;12.52;4.03;;;;;;;29.79;nan;100084.59;5021447;28;20056;-78
2023/07/21 09:46:02;;;;;;;10.52;3.97;;;;;;;29.89;nan;100085.91;5019611;28;20034;-76
2023/07/21 09:48:30;;;;;;;7.07;3.63;;;;;;;29.96;nan;100091.44;5019901;28;20027;-76
2023/07/21 09:51:01;;;;;;;5.00;3.30;;;;;;;30.01;nan;100101.22;5023396;28;20120;-76
2023/07/21 09:53:54;;;;;;;13.00;3.70;;;;;;;30.06;nan;100098.97;5020201;28;20036;-77
2023/07/21 09:56:21;;;;;;;6.32;3.28;;;;;;;30.20;nan;100101.13;5017287;28;20522;-77
2023/07/21 09:59:00;;;;;;;5.80;3.22;;;;;;;30.23;nan;100089.53;5017660;28;20048;-75
2023/07/21 10:01:26;;;;;;;5.18;2.88;;;;;;;30.31;nan;100083.09;5017130;28;20029;-78
2023/07/21 10:03:52;;;;;;;5.05;2.85;;;;;;;30.45;nan;100087.91;5017202;28;20030;-77
2023/07/21 10:06:19;;;;;;;4.95;3.13;;;;;;;30.53;nan;100084.16;5019000;28;20471;-75
2023/07/21 10:08:45;;;;;;;12.55;2.80;;;;;;;30.68;nan;100073.47;5019296;28;20037;-77
2023/07/21 10:11:12;;;;;;;18.92;3.42;;;;;;;30.71;nan;100073.50;5020012;28;20029;-76
2023/07/21 10:13:46;;;;;;;11.98;3.65;;;;;;;30.90;nan;100088.91;5021179;28;20038;-78
2023/07/21 10:16:12;;;;;;;5.68;3.60;;;;;;;30.96;nan;100073.06;5016736;28;20083;-77
2023/07/21 10:19:07;;;;;;;6.78;2.78;;;;;;;31.07;nan;100076.69;5019377;28;20029;-75
2023/07/21 10:21:51;;;;;;;6.30;2.63;;;;;;;31.15;nan;100062.03;5025628;28;20049;-75
2023/07/21 10:24:28;;;;;;;5.40;2.88;;;;;;;31.18;nan;100065.94;5023264;28;20128;-72
2023/07/21 10:27:00;;;;;;;7.15;3.25;;;;;;;31.30;nan;100064.88;5018885;28;20030;-72
2023/07/21 10:29:26;;;;;;;7.00;3.33;;;;;;;31.28;nan;100061.75;5017652;28;20725;-72
2023/07/21 10:31:55;;;;;;;6.03;3.25;;;;;;;31.24;nan;100064.41;5019690;28;20021;-72
2023/07/21 10:34:34;;;;;;;8.07;3.53;;;;;;;31.30;nan;100065.66;5015168;28;20048;-71
2023/07/21 10:37:02;;;;;;;9.13;3.15;;;;;;;31.39;nan;100070.81;5035170;28;20116;-77
2023/07/21 10:39:31;;;;;;;6.82;3.13;;;;;;;31.38;nan;100061.84;5020396;28;20037;-77
2023/07/21 10:42:15;;;;;;;5.15;3.13;;;;;;;31.38;nan;100058.34;5015871;28;20450;-76
2023/07/21 10:44:44;;;;;;;16.13;3.70;;;;;;;31.38;nan;100050.97;5017516;28;20033;-77
2023/07/21 10:47:17;;;;;;;8.70;3.53;;;;;;;31.46;nan;100054.56;5018914;28;20099;-77
2023/07/21 10:49:43;;;;;;;7.03;3.60;;;;;;;31.54;nan;100055.41;5019072;28;20124;-76
2023/07/21 10:52:09;;;;;;;5.72;3.15;;;;;;;31.62;nan;100048.09;5017643;28;20164;-72
2023/07/21 10:54:38;;;;;;;5.40;2.90;;;;;;;31.68;nan;100035.69;5020073;28;20575;-71
2023/07/21 10:57:04;;;;;;;5.00;2.50;;;;;;;31.74;nan;100036.91;5022372;28;20044;-72
2023/07/21 10:59:34;;;;;;;4.55;2.47;;;;;;;31.83;nan;100037.38;5023925;28;20045;-72
2023/07/21 11:02:02;;;;;;;5.40;3.20;;;;;;;31.90;nan;100015.63;5024617;28;20069;-72
2023/07/21 11:04:29;;;;;;;5.40;2.65;;;;;;;31.98;nan;100016.47;5036966;28;20036;-78
2023/07/21 11:06:57;;;;;;;3.92;2.60;;;;;;;32.09;nan;100017.34;5026453;28;20037;-77
2023/07/21 11:09:23;;;;;;;5.77;2.63;;;;;;;32.12;nan;100023.97;5023760;28;20478;-77
2023/07/21 11:11:50;;;;;;;3.80;2.45;;;;;;;32.20;nan;100015.47;5016887;28;20100;-76
2023/07/21 11:14:26;;;;;;;6.40;2.40;;;;;;;32.14;nan;99991.69;5016851;28;20032;-77
2023/07/21 11:17:01;;;;;;;6.45;2.90;;;;;;;32.25;nan;99989.00;5020943;28;20021;-77
2023/07/21 11:19:31;;;;;;;7.90;2.83;;;;;;;32.39;nan;99992.56;5018915;28;20029;-71
2023/07/21 11:21:57;;;;;;;5.70;2.83;;;;;;;32.37;nan;99983.19;5020873;28;20561;-71
2023/07/21 11:24:28;;;;;;;3.95;2.60;;;;;;;32.41;nan;99984.00;5020676;28;20053;-71
2023/07/21 11:27:05;;;;;;;4.22;2.90;;;;;;;32.48;nan;99981.31;5018458;28;20041;-71
2023/07/21 11:29:31;;;;;;;8.05;2.90;;;;;;;32.55;nan;99986.03;5018682;28;20044;-72
2023/07/21 11:31:57;;;;;;;3.88;3.00;;;;;;;32.63;nan;99984.88;5016708;28;20037;-72
2023/07/21 11:34:25;;;;;;;3.80;2.90;;;;;;;32.61;nan;99971.66;5021464;28;20037;-72
2023/07/21 11:36:55;;;;;;;3.38;2.55;;;;;;;32.73;nan;99975.97;5016526;28;20068;-72
2023/07/21 11:39:22;;;;;;;9.23;2.70;;;;;;;32.78;nan;99975.59;5015866;28;20476;-72
2023/07/21 11:41:53;;;;;;;3.30;2.22;;;;;;;32.80;nan;99967.81;5014125;28;20037;-77
2023/07/21 11:44:22;;;;;;;6.97;2.90;;;;;;;32.89;nan;99972.09;5016553;28;20041;-77
2023/07/21 11:47:06;;;;;;;;;;;;;;;32.96;nan;99970.16;5013644;28;20038;-78
2023/07/21 11:49:36;;;;;;;6.32;2.90;;;;;;;32.98;nan;99956.16;5011110;28;20032;-78